Time;durP1;ratioP1;P1;durP2;ratioP2;P2;SDS_P1;SDS_P2;PMS_P1;PMS_P2;Temp;Humidity;BMP_temperature;BMP_pressure;BME280_temperature;BME280_humidity;BME280_pressure;Samples;Min_cycle;Max_cycle;Signal;HPM_P1;HPM_P2
2023/06/06 00:01:25;;;;;;;8.20;4.90;;;;;;;17.38;67.72;98751.11;105105;1267;97984;-82
2023/06/06 00:03:52;;;;;;;8.80;5.30;;;;;;;17.32;67.35;98746.20;105032;1254;97955;-79
2023/06/06 00:06:20;;;;;;;7.00;4.90;;;;;;;17.21;67.80;98739.61;105047;1266;98474;-80
2023/06/06 00:08:50;;;;;;;7.60;5.00;;;;;;;17.11;68.36;98742.05;105221;1258;97927;-80
2023/06/06 00:11:17;;;;;;;8.00;5.10;;;;;;;17.02;68.74;98739.90;105070;1257;107677;-82
2023/06/06 00:13:44;;;;;;;7.70;4.60;;;;;;;16.95;68.16;98740.25;104971;1258;97918;-82
2023/06/06 00:16:13;;;;;;;11.40;4.60;;;;;;;16.90;68.12;98734.36;105109;1257;97913;-84
2023/06/06 00:18:41;;;;;;;6.40;4.00;;;;;;;16.87;66.18;98736.09;105261;1257;112224;-75
2023/06/06 00:21:09;;;;;;;5.40;3.60;;;;;;;16.86;65.40;98728.96;105229;1267;99298;-84
2023/06/06 00:23:37;;;;;;;4.80;3.10;;;;;;;16.87;64.04;98724.39;105237;1267;108201;-78
2023/06/06 00:26:04;;;;;;;4.20;3.30;;;;;;;16.88;63.56;98723.20;105208;1266;97970;-79
2023/06/06 00:28:31;;;;;;;7.30;3.60;;;;;;;16.87;63.66;98721.16;105103;1257;98867;-82
2023/06/06 00:30:58;;;;;;;9.00;3.40;;;;;;;16.90;63.38;98726.23;105096;1255;98800;-64
2023/06/06 00:33:25;;;;;;;7.70;3.40;;;;;;;16.90;63.04;98726.13;105083;1260;98569;-79
2023/06/06 00:35:52;;;;;;;5.00;3.30;;;;;;;16.89;62.65;98725.08;104980;1257;99088;-79
2023/06/06 00:38:18;;;;;;;5.30;3.10;;;;;;;16.89;62.77;98724.91;104954;1264;98585;-75
2023/06/06 00:40:45;;;;;;;6.80;3.00;;;;;;;16.87;62.95;98725.97;105271;1266;99687;-80
2023/06/06 00:43:12;;;;;;;5.20;3.50;;;;;;;16.85;62.81;98723.85;105185;1264;99141;-82
2023/06/06 00:45:39;;;;;;;4.50;2.90;;;;;;;16.87;63.02;98726.06;105209;1257;99175;-74
2023/06/06 00:48:07;;;;;;;8.40;3.10;;;;;;;16.90;62.38;98731.20;105188;1267;97883;-79
2023/06/06 00:50:35;;;;;;;4.60;2.80;;;;;;;16.89;62.21;98729.58;105066;1257;97911;-80
2023/06/06 00:53:04;;;;;;;4.30;2.90;;;;;;;16.89;62.37;98730.38;105243;1254;110673;-79
2023/06/06 00:55:31;;;;;;;3.60;3.10;;;;;;;16.87;62.30;98729.61;105200;1258;99131;-79
2023/06/06 00:57:59;;;;;;;3.20;2.50;;;;;;;16.84;61.90;98732.61;105231;1267;99228;-81
2023/06/06 01:00:32;;;;;;;4.70;2.80;;;;;;;16.84;61.90;98728.52;105271;1266;97978;-79
2023/06/06 01:03:03;;;;;;;5.10;2.90;;;;;;;16.85;62.05;98727.11;105063;1265;98192;-79
2023/06/06 01:05:31;;;;;;;5.20;2.80;;;;;;;16.86;61.85;98727.53;104958;1258;112242;-80
2023/06/06 01:07:58;;;;;;;4.50;2.90;;;;;;;16.88;61.80;98729.25;105153;1255;97915;-79
2023/06/06 01:10:28;;;;;;;9.40;2.90;;;;;;;16.88;61.58;98731.15;105185;1254;99221;-82
2023/06/06 01:13:11;;;;;;;5.40;2.60;;;;;;;16.89;61.97;98732.98;105150;1257;97923;-78
2023/06/06 01:15:55;;;;;;;2.90;2.40;;;;;;;16.90;61.12;98736.17;105220;1258;99198;-78
2023/06/06 01:18:22;;;;;;;5.90;2.80;;;;;;;16.91;60.89;98735.88;105254;1264;111900;-79
2023/06/06 01:20:50;;;;;;;4.40;2.90;;;;;;;16.90;61.06;98735.06;105256;1267;99106;-79
2023/06/06 01:23:17;;;;;;;3.50;2.40;;;;;;;16.90;60.85;98730.64;105255;1257;108722;-70
2023/06/06 01:25:49;;;;;;;5.80;2.40;;;;;;;16.90;60.70;98726.52;105293;1260;98033;-76
2023/06/06 01:28:16;;;;;;;6.60;2.50;;;;;;;16.89;60.66;98726.89;105214;1257;97927;-79
2023/06/06 01:30:45;;;;;;;6.60;2.90;;;;;;;16.89;60.79;98730.67;105248;1258;111953;-79
2023/06/06 01:33:43;;;;;;;3.20;2.70;;;;;;;16.87;60.86;98729.46;105238;1264;99157;-79
2023/06/06 01:36:23;;;;;;;3.90;2.90;;;;;;;16.88;61.22;98728.52;105209;1257;107740;-79
2023/06/06 01:38:53;;;;;;;6.30;2.90;;;;;;;16.89;61.62;98731.72;105238;1257;99189;-66
2023/06/06 01:41:22;;;;;;;4.90;2.90;;;;;;;16.94;61.86;98734.22;105268;1264;97975;-64
2023/06/06 01:43:55;;;;;;;5.00;3.00;;;;;;;16.96;61.44;98737.28;105218;1268;112213;-79
2023/06/06 01:46:25;;;;;;;4.00;2.60;;;;;;;16.88;61.42;98741.89;105228;1256;99271;-70
2023/06/06 01:48:53;;;;;;;6.10;3.40;;;;;;;16.80;61.12;98743.20;105203;1257;108573;-77
2023/06/06 01:51:20;;;;;;;5.60;2.90;;;;;;;16.77;61.98;98741.94;105121;1266;97857;-80
2023/06/06 01:53:47;;;;;;;5.50;2.90;;;;;;;16.71;62.36;98742.30;105102;1258;97895;-79
2023/06/06 01:56:14;;;;;;;7.70;3.10;;;;;;;16.64;62.42;98741.02;105168;1257;97905;-77
2023/06/06 01:58:41;;;;;;;5.00;3.40;;;;;;;16.61;63.01;98740.14;104911;1260;97906;-74
2023/06/06 02:01:08;;;;;;;4.70;3.00;;;;;;;16.56;63.12;98739.45;104898;1261;99192;-80
2023/06/06 02:03:36;;;;;;;5.50;3.40;;;;;;;16.57;63.41;98738.30;105273;1256;99064;-76
2023/06/06 02:06:05;;;;;;;4.30;3.00;;;;;;;16.55;63.88;98738.24;105271;1255;97934;-79
2023/06/06 02:08:32;;;;;;;4.40;3.20;;;;;;;16.51;64.32;98739.64;105015;1266;98688;-81
2023/06/06 02:10:59;;;;;;;7.80;3.30;;;;;;;16.47;64.25;98736.52;105028;1258;97942;-71
2023/06/06 02:13:27;;;;;;;4.20;2.90;;;;;;;16.47;64.12;98734.92;105017;1267;98012;-64
2023/06/06 02:15:55;;;;;;;4.70;3.30;;;;;;;16.50;64.35;98733.98;105068;1268;97974;-79
2023/06/06 02:18:22;;;;;;;5.00;3.10;;;;;;;16.53;64.04;98735.34;105234;1274;98267;-71
2023/06/06 02:20:49;;;;;;;6.10;3.30;;;;;;;16.57;64.12;98735.05;105189;1258;98002;-80
2023/06/06 02:23:18;;;;;;;5.40;3.20;;;;;;;16.56;64.28;98736.14;105098;1267;98539;-79
2023/06/06 02:25:45;;;;;;;4.50;3.10;;;;;;;16.51;64.57;98737.65;105022;1257;107274;-79
2023/06/06 02:28:14;;;;;;;5.70;3.40;;;;;;;16.45;64.39;98736.95;105136;1255;97969;-79
2023/06/06 02:30:41;;;;;;;5.30;3.10;;;;;;;16.43;64.70;98731.11;105108;1254;97867;-80
2023/06/06 02:33:08;;;;;;;5.00;3.00;;;;;;;16.39;64.75;98732.83;105196;1266;99212;-81
2023/06/06 02:35:36;;;;;;;4.50;3.00;;;;;;;16.38;64.87;98735.72;105152;1254;97899;-80
2023/06/06 02:38:03;;;;;;;7.20;3.20;;;;;;;16.38;64.72;98733.27;105249;1266;99218;-79
2023/06/06 02:40:30;;;;;;;3.40;2.70;;;;;;;16.36;64.76;98733.84;105308;1267;99141;-79
2023/06/06 02:42:59;;;;;;;4.90;3.20;;;;;;;16.33;65.12;98734.84;105259;1254;99060;-80
2023/06/06 02:45:27;;;;;;;4.80;3.10;;;;;;;16.28;65.29;98735.27;105268;1257;112277;-82
2023/06/06 02:47:54;;;;;;;3.80;2.90;;;;;;;16.24;65.54;98734.60;105176;1257;99272;-80
2023/06/06 02:50:21;;;;;;;5.10;2.80;;;;;;;16.21;65.39;98732.92;105171;1257;99243;-77
2023/06/06 02:52:49;;;;;;;6.00;2.90;;;;;;;16.18;65.84;98735.08;105198;1276;99289;-81
2023/06/06 02:55:16;;;;;;;5.20;3.10;;;;;;;16.17;65.74;98733.55;105309;1254;97883;-78
2023/06/06 02:57:43;;;;;;;5.50;2.90;;;;;;;16.18;65.44;98732.48;105225;1258;98013;-77
2023/06/06 03:00:12;;;;;;;6.10;2.90;;;;;;;16.21;65.40;98733.48;105172;1258;97918;-81
2023/06/06 03:02:39;;;;;;;4.10;3.50;;;;;;;16.28;65.27;98735.44;104958;1276;404016;-73
2023/06/06 03:05:06;;;;;;;3.70;2.90;;;;;;;16.31;65.11;98735.11;105229;1257;97992;-78
2023/06/06 03:07:33;;;;;;;6.90;3.10;;;;;;;16.30;65.43;98736.27;105230;1257;97970;-81
2023/06/06 03:10:01;;;;;;;5.40;3.00;;;;;;;16.30;65.60;98736.76;105247;1254;97998;-77
2023/06/06 03:12:28;;;;;;;6.00;3.20;;;;;;;16.30;66.22;98734.45;105340;1256;97998;-77
2023/06/06 03:14:55;;;;;;;4.60;3.20;;;;;;;16.26;66.06;98730.55;105211;1258;99212;-70
2023/06/06 03:17:24;;;;;;;3.70;3.10;;;;;;;16.23;66.26;98733.95;105194;1272;99137;-80
2023/06/06 03:19:51;;;;;;;4.50;2.90;;;;;;;16.19;66.55;98736.91;105010;1254;98327;-80
2023/06/06 03:22:18;;;;;;;4.80;3.30;;;;;;;16.17;66.77;98737.11;104971;1257;97959;-80
2023/06/06 03:24:46;;;;;;;4.80;3.40;;;;;;;16.16;66.94;98736.99;105164;1257;97951;-81
2023/06/06 03:27:14;;;;;;;4.50;3.30;;;;;;;16.14;66.76;98739.59;105193;1258;97992;-74
2023/06/06 03:29:41;;;;;;;5.10;3.30;;;;;;;16.16;66.96;98738.27;105223;1256;98009;-80
2023/06/06 03:32:08;;;;;;;4.90;3.30;;;;;;;16.19;67.40;98731.95;105166;1256;99217;-80
2023/06/06 03:34:36;;;;;;;4.70;3.30;;;;;;;16.17;67.70;98730.29;105039;1257;99078;-78
2023/06/06 03:37:03;;;;;;;4.90;3.50;;;;;;;16.13;68.02;98726.00;105316;1254;99097;-80
2023/06/06 03:39:30;;;;;;;5.90;3.40;;;;;;;16.10;68.27;98728.42;105182;1261;97912;-81
2023/06/06 03:41:57;;;;;;;5.90;3.20;;;;;;;16.07;68.16;98724.55;105177;1274;97889;-79
2023/06/06 03:44:24;;;;;;;5.90;3.60;;;;;;;16.06;68.36;98722.25;105107;1257;97896;-80
2023/06/06 03:46:51;;;;;;;5.60;3.40;;;;;;;16.08;68.15;98721.15;105010;1270;97917;-80
2023/06/06 03:49:18;;;;;;;6.60;4.10;;;;;;;16.10;67.81;98722.03;105051;1254;98584;-80
2023/06/06 03:51:46;;;;;;;6.20;3.60;;;;;;;16.13;67.53;98721.02;105145;1258;97943;-78
2023/06/06 03:54:13;;;;;;;5.00;3.50;;;;;;;16.12;67.74;98722.41;105224;1257;97999;-79
2023/06/06 03:56:42;;;;;;;6.70;3.80;;;;;;;16.14;67.81;98725.64;105073;1257;97963;-86
2023/06/06 03:59:13;;;;;;;5.10;3.50;;;;;;;16.16;67.77;98728.63;105210;1256;97810;-78
2023/06/06 04:01:41;;;;;;;7.30;3.70;;;;;;;16.18;67.33;98726.52;105326;1257;98235;-76
2023/06/06 04:04:09;;;;;;;6.90;3.60;;;;;;;16.19;67.00;98724.44;105232;1256;107158;-79
2023/06/06 04:06:37;;;;;;;7.90;3.50;;;;;;;16.22;67.50;98721.67;105250;1257;97902;-78
2023/06/06 04:09:07;;;;;;;4.80;3.00;;;;;;;16.23;67.04;98718.71;105213;1257;98571;-78
2023/06/06 04:11:35;;;;;;;3.90;3.00;;;;;;;16.26;66.81;98719.41;105165;1254;111793;-78
2023/06/06 04:14:02;;;;;;;5.50;3.30;;;;;;;16.29;66.55;98719.50;105154;1253;97907;-73
2023/06/06 04:16:30;;;;;;;6.00;3.00;;;;;;;16.34;65.91;98719.70;105167;1257;97897;-76
2023/06/06 04:18:57;;;;;;;4.50;3.10;;;;;;;16.32;65.85;98720.54;105043;1267;97893;-78
2023/06/06 04:21:24;;;;;;;4.30;3.00;;;;;;;16.36;65.66;98720.80;105192;1256;97817;-66
2023/06/06 04:23:53;;;;;;;6.60;2.80;;;;;;;16.46;65.67;98721.38;105258;1258;97876;-80
2023/06/06 04:26:25;;;;;;;7.50;3.10;;;;;;;16.49;64.04;98715.71;105218;1253;98823;-79
2023/06/06 04:28:53;;;;;;;4.50;3.40;;;;;;;16.48;64.67;98713.09;105298;1266;107677;-73
2023/06/06 04:31:23;;;;;;;4.20;2.80;;;;;;;16.53;65.04;98713.20;105315;1257;97871;-78
2023/06/06 04:33:53;;;;;;;3.30;2.70;;;;;;;16.63;64.63;98713.71;105304;1258;98577;-77
2023/06/06 04:36:23;;;;;;;3.90;2.70;;;;;;;16.62;63.85;98716.31;105267;1258;111129;-79
2023/06/06 04:38:51;;;;;;;4.90;2.50;;;;;;;16.57;63.84;98717.91;105218;1253;97994;-77
2023/06/06 04:41:22;;;;;;;4.30;2.80;;;;;;;16.50;63.94;98718.59;105104;1258;108559;-78
2023/06/06 04:43:52;;;;;;;4.30;2.80;;;;;;;16.49;64.41;98714.83;105121;1257;99209;-79
2023/06/06 04:46:23;;;;;;;5.10;2.70;;;;;;;16.55;64.34;98718.25;105170;1256;97991;-76
2023/06/06 04:48:54;;;;;;;4.60;2.90;;;;;;;16.57;64.05;98717.90;105082;1273;112178;-77
2023/06/06 04:51:33;;;;;;;7.80;2.90;;;;;;;16.60;64.37;98714.20;105073;1258;99304;-76
2023/06/06 04:54:03;;;;;;;6.10;3.20;;;;;;;16.69;64.06;98710.95;105050;1260;108841;-76
2023/06/06 04:56:30;;;;;;;4.40;2.60;;;;;;;16.78;63.74;98712.52;105112;1264;98612;-75
2023/06/06 04:59:05;;;;;;;4.20;2.60;;;;;;;16.85;62.83;98709.86;105074;1254;99109;-75
2023/06/06 05:01:37;;;;;;;5.10;2.90;;;;;;;16.84;62.53;98712.86;105091;1259;111426;-75
2023/06/06 05:04:06;;;;;;;6.50;3.30;;;;;;;16.86;62.59;98712.42;105068;1260;99215;-69
2023/06/06 05:06:34;;;;;;;4.30;2.60;;;;;;;17.00;62.90;98714.83;104950;1269;108899;-76
2023/06/06 05:09:04;;;;;;;5.60;2.60;;;;;;;17.14;62.23;98716.19;105074;1268;98820;-74
2023/06/06 05:11:32;;;;;;;5.00;2.40;;;;;;;17.20;61.39;98715.45;104981;1254;98005;-72
2023/06/06 05:13:59;;;;;;;7.60;2.60;;;;;;;17.18;61.12;98712.26;104839;1257;97951;-75
2023/06/06 05:16:26;;;;;;;3.80;2.60;;;;;;;17.19;61.00;98717.78;105067;1259;97899;-77
2023/06/06 05:18:54;;;;;;;8.00;3.20;;;;;;;17.21;60.92;98718.72;105105;1268;108160;-73
2023/06/06 05:21:21;;;;;;;4.20;3.10;;;;;;;17.21;60.40;98720.70;105108;1259;97896;-74
2023/06/06 05:23:49;;;;;;;3.20;2.70;;;;;;;17.17;60.48;98723.61;105119;1256;97900;-74
2023/06/06 05:26:16;;;;;;;4.30;2.60;;;;;;;17.19;60.36;98721.91;105034;1255;97938;-74
2023/06/06 05:28:43;;;;;;;4.20;2.60;;;;;;;17.20;60.40;98725.50;105082;1259;97912;-74
2023/06/06 05:31:09;;;;;;;4.10;2.60;;;;;;;17.21;60.45;98723.22;104936;1270;97975;-74
2023/06/06 05:33:41;;;;;;;3.80;2.70;;;;;;;17.19;60.72;98723.09;104936;1254;98687;-73
2023/06/06 05:36:09;;;;;;;5.20;2.80;;;;;;;17.21;61.09;98724.02;104933;1258;97921;-74
2023/06/06 05:38:37;;;;;;;5.00;2.90;;;;;;;17.23;60.92;98720.66;104890;1254;111274;-68
2023/06/06 05:41:04;;;;;;;5.50;3.10;;;;;;;17.24;61.38;98722.75;104930;1276;97961;-74
2023/06/06 05:43:33;;;;;;;3.90;2.40;;;;;;;17.28;61.52;98723.48;105047;1257;97908;-74
2023/06/06 05:46:01;;;;;;;4.40;3.00;;;;;;;17.32;61.46;98722.80;105105;1258;97876;-74
2023/06/06 05:48:29;;;;;;;6.10;3.00;;;;;;;17.37;61.60;98718.85;105139;1258;97829;-69
2023/06/06 05:50:57;;;;;;;5.30;2.80;;;;;;;17.44;61.80;98720.94;104994;1256;99223;-68
2023/06/06 05:53:24;;;;;;;6.20;3.00;;;;;;;17.52;61.31;98716.77;105036;1261;99411;-66
2023/06/06 05:55:52;;;;;;;6.20;3.00;;;;;;;17.54;61.47;98716.27;104911;1254;108645;-72
2023/06/06 05:58:20;;;;;;;5.40;2.90;;;;;;;17.58;61.52;98715.65;105062;1267;98883;-71
2023/06/06 06:00:47;;;;;;;4.20;3.10;;;;;;;17.64;61.00;98718.45;105068;1257;97886;-69
2023/06/06 06:03:15;;;;;;;4.10;3.00;;;;;;;17.78;61.08;98718.08;105302;1256;111273;-69
2023/06/06 06:05:42;;;;;;;4.60;2.90;;;;;;;17.93;60.36;98716.74;105168;1254;99077;-66
2023/06/06 06:08:10;;;;;;;4.20;2.80;;;;;;;18.01;59.48;98713.68;105086;1257;108486;-73
2023/06/06 06:10:38;;;;;;;3.70;2.70;;;;;;;18.13;59.72;98716.55;105083;1256;97963;-69
2023/06/06 06:13:06;;;;;;;6.10;2.90;;;;;;;18.24;58.32;98716.09;105158;1266;99301;-64
2023/06/06 06:15:35;;;;;;;3.80;2.80;;;;;;;18.27;58.23;98717.89;105145;1257;112453;-63
2023/06/06 06:18:03;;;;;;;4.80;3.10;;;;;;;18.27;58.05;98718.03;105222;1269;99194;-63
2023/06/06 06:20:31;;;;;;;4.60;2.90;;;;;;;18.29;58.23;98715.62;105188;1260;107792;-66
2023/06/06 06:22:58;;;;;;;5.00;2.70;;;;;;;18.46;58.52;98720.64;105078;1276;97982;-64
2023/06/06 06:25:25;;;;;;;6.10;3.00;;;;;;;18.72;58.36;98722.09;105159;1256;98421;-63
2023/06/06 06:27:52;;;;;;;5.10;3.00;;;;;;;18.98;57.91;98724.05;105157;1254;97900;-64
2023/06/06 06:30:20;;;;;;;3.60;2.30;;;;;;;19.13;57.39;98719.43;105173;1255;97908;-65
2023/06/06 06:32:47;;;;;;;8.00;3.40;;;;;;;19.22;56.27;98720.30;105117;1254;98488;-65
2023/06/06 06:35:14;;;;;;;6.50;2.90;;;;;;;19.33;56.01;98714.61;104988;1256;97896;-64
2023/06/06 06:37:42;;;;;;;5.30;2.90;;;;;;;19.48;55.33;98711.98;105051;1256;98404;-63
2023/06/06 06:40:10;;;;;;;4.70;2.80;;;;;;;19.61;55.26;98716.95;105045;1257;97844;-63
2023/06/06 06:42:43;;;;;;;7.30;3.10;;;;;;;19.72;53.52;98718.06;105121;1256;97870;-69
2023/06/06 06:45:13;;;;;;;6.60;2.80;;;;;;;19.61;53.52;98715.84;105044;1254;108136;-72
2023/06/06 06:47:41;;;;;;;8.10;3.00;;;;;;;19.65;53.31;98715.42;105158;1256;97995;-66
2023/06/06 06:50:10;;;;;;;5.70;2.90;;;;;;;19.62;53.25;98719.34;105158;1257;97930;-66
2023/06/06 06:52:37;;;;;;;5.40;2.80;;;;;;;19.63;53.11;98720.31;105188;1254;111412;-65
2023/06/06 06:55:07;;;;;;;3.70;2.60;;;;;;;19.59;52.68;98717.40;105195;1253;97975;-68
2023/06/06 06:57:36;;;;;;;4.40;2.90;;;;;;;19.61;53.56;98713.61;105390;1257;108275;-65
2023/06/06 07:00:12;;;;;;;4.50;2.90;;;;;;;19.64;53.07;98712.45;105174;1270;97969;-65
2023/06/06 07:02:42;;;;;;;4.80;3.10;;;;;;;19.58;53.28;98710.78;105103;1257;99083;-68
2023/06/06 07:05:11;;;;;;;4.50;3.00;;;;;;;19.67;53.39;98710.91;105132;1257;110857;-64
2023/06/06 07:07:50;;;;;;;6.40;3.10;;;;;;;19.78;53.17;98714.73;105122;1257;99023;-70
2023/06/06 07:10:17;;;;;;;5.00;2.90;;;;;;;19.87;52.63;98713.35;104979;1267;107682;-64
2023/06/06 07:12:49;;;;;;;4.20;3.10;;;;;;;19.87;52.29;98712.08;105105;1270;97823;-65
2023/06/06 07:15:17;;;;;;;6.70;3.20;;;;;;;19.80;52.68;98714.59;105058;1270;98252;-70
2023/06/06 07:17:51;;;;;;;5.10;3.50;;;;;;;19.84;53.02;98715.14;105177;1254;111232;-65
2023/06/06 07:20:21;;;;;;;4.00;3.30;;;;;;;19.96;53.00;98713.72;105203;1257;99263;-67
2023/06/06 07:22:50;;;;;;;4.00;3.00;;;;;;;20.09;52.99;98713.20;105192;1255;107619;-63
2023/06/06 07:25:17;;;;;;;5.60;3.20;;;;;;;20.16;52.70;98709.88;105159;1256;97976;-65
2023/06/06 07:27:45;;;;;;;4.80;3.00;;;;;;;20.34;52.91;98709.38;105252;1253;98430;-63
2023/06/06 07:30:13;;;;;;;6.70;3.20;;;;;;;20.53;52.86;98712.30;105130;1258;97937;-64
2023/06/06 07:32:46;;;;;;;4.20;3.20;;;;;;;20.67;52.29;98712.53;105165;1257;98896;-64
2023/06/06 07:35:21;;;;;;;5.80;3.40;;;;;;;20.78;51.92;98713.60;105006;1257;108639;-65
2023/06/06 07:37:48;;;;;;;5.40;3.00;;;;;;;20.88;51.50;98714.09;104938;1268;97998;-67
2023/06/06 07:40:16;;;;;;;4.60;3.00;;;;;;;20.95;51.56;98713.08;105032;1257;98376;-63
2023/06/06 07:42:44;;;;;;;4.60;3.10;;;;;;;21.00;51.23;98714.64;105179;1254;111418;-64
2023/06/06 07:45:12;;;;;;;3.90;2.80;;;;;;;20.91;51.37;98717.48;105161;1256;99308;-63
2023/06/06 07:47:40;;;;;;;6.50;3.40;;;;;;;20.84;51.95;98718.11;105158;1257;97947;-63
2023/06/06 07:50:08;;;;;;;8.70;3.70;;;;;;;20.96;51.88;98714.67;105194;1257;97896;-63
2023/06/06 07:52:36;;;;;;;6.00;3.40;;;;;;;21.17;51.40;98714.55;105211;1257;99293;-63
2023/06/06 07:55:05;;;;;;;4.80;3.30;;;;;;;21.30;51.30;98714.19;105165;1256;111307;-63
2023/06/06 07:57:33;;;;;;;5.20;2.90;;;;;;;21.44;49.60;98716.84;105137;1256;99336;-63
2023/06/06 08:00:06;;;;;;;5.00;3.60;;;;;;;21.30;49.92;98717.14;104988;1257;108434;-62
2023/06/06 08:02:33;;;;;;;5.30;3.30;;;;;;;21.30;49.90;98716.42;105050;1253;98028;-63
2023/06/06 08:05:03;;;;;;;4.70;3.30;;;;;;;21.32;50.29;98714.68;105289;1256;98395;-65
2023/06/06 08:07:39;;;;;;;6.10;3.00;;;;;;;21.41;49.33;98711.80;105312;1257;111249;-63
2023/06/06 08:10:10;;;;;;;4.90;3.10;;;;;;;21.39;49.20;98715.45;105344;1253;97909;-63
2023/06/06 08:12:46;;;;;;;6.30;3.00;;;;;;;21.36;48.97;98716.70;105280;1257;107923;-63
2023/06/06 08:15:20;;;;;;;6.40;3.40;;;;;;;21.42;48.87;98710.86;105302;1254;99298;-66
2023/06/06 08:17:56;;;;;;;4.60;3.10;;;;;;;21.48;49.42;98709.30;105256;1257;97956;-70
2023/06/06 08:20:33;;;;;;;4.70;3.40;;;;;;;21.60;49.08;98704.30;105209;1257;112281;-72
2023/06/06 08:23:08;;;;;;;4.60;3.50;;;;;;;21.71;48.85;98706.76;105314;1257;99199;-66
2023/06/06 08:25:39;;;;;;;8.20;3.40;;;;;;;21.84;48.70;98704.55;105304;1254;109085;-70
2023/06/06 08:28:06;;;;;;;5.60;3.10;;;;;;;22.08;48.81;98704.77;105574;1257;97905;-64
2023/06/06 08:30:33;;;;;;;5.00;3.70;;;;;;;22.21;47.80;98708.73;105170;1257;97899;-63
2023/06/06 08:33:01;;;;;;;4.60;3.40;;;;;;;22.22;47.93;98706.27;105250;1256;97883;-70
2023/06/06 08:35:28;;;;;;;6.90;3.40;;;;;;;22.23;48.00;98708.34;105240;1258;97899;-71
2023/06/06 08:37:55;;;;;;;5.70;3.80;;;;;;;22.19;47.81;98706.25;105239;1257;98001;-69
2023/06/06 08:40:23;;;;;;;6.40;3.50;;;;;;;22.22;48.76;98705.14;105258;1256;99238;-64
2023/06/06 08:42:52;;;;;;;6.80;3.70;;;;;;;22.50;48.03;98700.86;105291;1257;97919;-63
2023/06/06 08:45:22;;;;;;;7.30;3.40;;;;;;;22.79;47.82;98703.36;105352;1258;111234;-67
2023/06/06 08:47:51;;;;;;;6.00;3.30;;;;;;;22.93;46.72;98700.98;105314;1256;99198;-63
2023/06/06 08:50:21;;;;;;;5.60;3.70;;;;;;;22.80;46.54;98703.84;105311;1257;107796;-66
2023/06/06 08:52:49;;;;;;;8.30;3.60;;;;;;;22.72;47.03;98702.39;105285;1266;97978;-67
2023/06/06 08:55:18;;;;;;;6.10;3.50;;;;;;;22.68;47.36;98701.89;105281;1257;97886;-64
2023/06/06 08:57:47;;;;;;;4.80;3.10;;;;;;;22.86;47.44;98703.05;105313;1256;111642;-66
2023/06/06 09:00:21;;;;;;;7.30;3.50;;;;;;;23.01;46.59;98703.06;105306;1254;98437;-63
2023/06/06 09:02:52;;;;;;;5.20;3.30;;;;;;;22.99;46.18;98702.98;105245;1257;108697;-64
2023/06/06 09:05:20;;;;;;;6.30;3.60;;;;;;;22.92;46.51;98703.39;105083;1261;97969;-67
2023/06/06 09:07:49;;;;;;;6.90;3.80;;;;;;;22.99;46.19;98703.78;105355;1257;97995;-64
2023/06/06 09:10:18;;;;;;;9.40;3.40;;;;;;;22.94;45.71;98703.14;105291;1257;112137;-64
2023/06/06 09:12:47;;;;;;;5.20;3.30;;;;;;;22.90;46.58;98706.33;105285;1257;99215;-65
2023/06/06 09:15:15;;;;;;;6.40;3.30;;;;;;;22.77;45.71;98705.27;105309;1266;107160;-65
2023/06/06 09:17:46;;;;;;;7.90;3.90;;;;;;;22.56;46.17;98706.55;105302;1257;99196;-63
2023/06/06 09:20:15;;;;;;;7.80;3.40;;;;;;;22.49;46.24;98709.70;105184;1266;97933;-63
2023/06/06 09:22:46;;;;;;;8.30;3.90;;;;;;;22.52;46.43;98704.21;105299;1256;110235;-65
2023/06/06 09:25:25;;;;;;;8.60;3.80;;;;;;;22.67;47.44;98704.45;105136;1257;99193;-66
2023/06/06 09:28:00;;;;;;;8.60;3.90;;;;;;;22.68;46.50;98702.21;105260;1256;108721;-67
2023/06/06 09:30:30;;;;;;;6.30;3.60;;;;;;;22.79;46.64;98700.08;105343;1257;98671;-65
2023/06/06 09:33:03;;;;;;;5.70;3.70;;;;;;;22.87;46.00;98699.70;105281;1257;99212;-64
2023/06/06 09:35:33;;;;;;;4.70;3.60;;;;;;;22.77;46.23;98698.64;105266;1257;110256;-64
2023/06/06 09:38:05;;;;;;;5.90;3.60;;;;;;;22.78;46.27;98700.95;105243;1254;99208;-64
2023/06/06 09:40:43;;;;;;;6.30;3.50;;;;;;;22.84;46.05;98699.53;105279;1258;108123;-67
2023/06/06 09:43:11;;;;;;;9.70;4.40;;;;;;;22.99;46.28;98697.80;105302;1257;99189;-64
2023/06/06 09:45:55;;;;;;;4.90;3.60;;;;;;;23.19;46.10;98698.05;105279;1257;99125;-64
2023/06/06 09:48:25;;;;;;;5.20;3.70;;;;;;;23.21;45.55;98695.26;105307;1266;112314;-65
2023/06/06 09:50:54;;;;;;;6.00;3.80;;;;;;;22.92;45.65;98693.16;105284;1257;98791;-64
2023/06/06 09:53:28;;;;;;;6.10;3.50;;;;;;;22.89;46.39;98689.16;105278;1257;107283;-64
2023/06/06 09:56:02;;;;;;;7.70;4.10;;;;;;;23.07;45.61;98693.09;105318;1257;97924;-65
2023/06/06 09:58:32;;;;;;;8.10;4.00;;;;;;;23.21;45.79;98698.69;105296;1257;99215;-65
2023/06/06 10:01:01;;;;;;;5.80;3.70;;;;;;;23.26;45.89;98694.95;105186;1254;112003;-64
2023/06/06 10:03:30;;;;;;;7.10;3.80;;;;;;;23.43;45.90;98696.16;105270;1254;98300;-64
2023/06/06 10:05:58;;;;;;;6.70;3.50;;;;;;;23.51;45.11;98694.55;105293;1256;108655;-65
2023/06/06 10:08:27;;;;;;;4.10;3.50;;;;;;;23.37;44.05;98694.45;105264;1257;97882;-66
2023/06/06 10:10:55;;;;;;;7.20;3.60;;;;;;;23.39;44.70;98697.03;105303;1256;97803;-64
2023/06/06 10:13:23;;;;;;;7.10;3.60;;;;;;;23.39;44.07;98695.52;105326;1257;111257;-64
2023/06/06 10:15:50;;;;;;;7.90;3.70;;;;;;;23.33;44.03;98693.10;105159;1257;99216;-68
2023/06/06 10:18:18;;;;;;;6.30;3.80;;;;;;;23.31;44.06;98690.30;105171;1257;108559;-64
2023/06/06 10:20:47;;;;;;;5.50;3.60;;;;;;;23.42;44.75;98694.73;105470;1257;99186;-65
2023/06/06 10:23:14;;;;;;;5.10;3.80;;;;;;;23.61;44.58;98692.30;105341;1257;98051;-67
2023/06/06 10:25:44;;;;;;;7.40;3.80;;;;;;;23.75;43.75;98691.79;105327;1266;111240;-65
2023/06/06 10:28:28;;;;;;;6.60;4.10;;;;;;;23.57;43.72;98691.91;105326;1257;99058;-64
2023/06/06 10:31:16;;;;;;;6.30;4.10;;;;;;;23.41;43.66;98694.63;105218;1256;108936;-64
2023/06/06 10:34:04;;;;;;;6.40;3.60;;;;;;;23.48;44.34;98691.60;105240;1264;97909;-64
2023/06/06 10:36:40;;;;;;;5.10;3.90;;;;;;;23.78;44.28;98685.71;105243;1253;99096;-64
2023/06/06 10:39:23;;;;;;;7.80;3.90;;;;;;;24.14;44.18;98689.21;105216;1257;111333;-64
2023/06/06 10:41:58;;;;;;;7.50;3.50;;;;;;;24.55;43.61;98686.55;105313;1257;99132;-64
2023/06/06 10:44:35;;;;;;;14.00;4.20;;;;;;;24.64;42.50;98684.66;105172;1257;107483;-63
2023/06/06 10:47:21;;;;;;;7.10;3.70;;;;;;;24.48;43.37;98689.95;105208;1257;98567;-63
2023/06/06 10:50:13;;;;;;;7.90;3.90;;;;;;;24.82;43.47;98689.20;105335;1257;99106;-68
2023/06/06 10:53:15;;;;;;;9.30;4.00;;;;;;;25.05;42.25;98690.50;105285;1270;112602;-64
2023/06/06 10:55:46;;;;;;;4.90;3.80;;;;;;;25.02;42.27;98689.09;105332;1257;99192;-70
2023/06/06 10:58:32;;;;;;;5.80;3.70;;;;;;;24.90;41.69;98686.77;105267;1275;107481;-64
2023/06/06 11:01:06;;;;;;;5.50;3.40;;;;;;;24.82;42.05;98691.13;105253;1258;97889;-63
2023/06/06 11:03:38;;;;;;;5.70;4.00;;;;;;;24.78;42.73;98691.30;105335;1256;97886;-66
2023/06/06 11:06:11;;;;;;;6.00;3.90;;;;;;;24.82;42.43;98693.60;105198;1257;111388;-63
2023/06/06 11:08:47;;;;;;;5.80;4.10;;;;;;;24.92;42.45;98696.28;105323;1257;98370;-64
2023/06/06 11:11:26;;;;;;;6.40;4.40;;;;;;;24.89;42.60;98696.30;105239;1257;108588;-65
2023/06/06 11:14:04;;;;;;;4.50;4.10;;;;;;;24.96;43.18;98692.02;105277;1268;97937;-66
2023/06/06 11:16:39;;;;;;;6.00;3.90;;;;;;;25.06;42.56;98691.54;105332;1254;97924;-65
2023/06/06 11:19:14;;;;;;;7.70;3.90;;;;;;;25.01;43.30;98688.30;105328;1257;111210;-70
2023/06/06 11:21:45;;;;;;;5.90;4.10;;;;;;;24.86;43.00;98689.49;105284;1254;98585;-63
2023/06/06 11:24:14;;;;;;;6.80;3.80;;;;;;;24.83;43.47;98691.20;105305;1256;108675;-65
2023/06/06 11:26:43;;;;;;;6.80;4.20;;;;;;;24.93;43.69;98690.59;105232;1257;98049;-65
2023/06/06 11:29:11;;;;;;;7.80;4.30;;;;;;;24.92;43.79;98691.63;105230;1256;99182;-64
2023/06/06 11:31:39;;;;;;;6.70;4.60;;;;;;;24.67;43.99;98690.23;105207;1256;112835;-64
2023/06/06 11:34:14;;;;;;;6.90;4.50;;;;;;;24.50;44.61;98690.83;105178;1267;99192;-64
2023/06/06 11:36:44;;;;;;;5.90;4.20;;;;;;;24.62;44.55;98688.90;105116;1257;108471;-64